sensor_id;sensor_type;location;lat;lon;timestamp;temperature;humidity
14000;DHT22;7075;53.574;10.054;2023-07-29T00:00:43;20.30;99.90
14000;DHT22;7075;53.574;10.054;2023-07-29T00:03:09;20.20;99.90
14000;DHT22;7075;53.574;10.054;2023-07-29T00:05:35;20.20;99.90
14000;DHT22;7075;53.574;10.054;2023-07-29T00:08:00;20.20;99.90
14000;DHT22;7075;53.574;10.054;2023-07-29T00:10:26;20.20;99.90
14000;DHT22;7075;53.574;10.054;2023-07-29T00:12:54;20.20;99.90
14000;DHT22;7075;53.574;10.054;2023-07-29T00:15:19;20.20;99.90
14000;DHT22;7075;53.574;10.054;2023-07-29T00:17:45;20.20;99.90
14000;DHT22;7075;53.574;10.054;2023-07-29T00:20:10;20.10;99.90
14000;DHT22;7075;53.574;10.054;2023-07-29T00:22:36;20.00;99.90
14000;DHT22;7075;53.574;10.054;2023-07-29T00:25:01;20.00;99.90
14000;DHT22;7075;53.574;10.054;2023-07-29T00:27:27;20.00;99.90
14000;DHT22;7075;53.574;10.054;2023-07-29T00:29:53;20.00;99.90
14000;DHT22;7075;53.574;10.054;2023-07-29T00:32:18;20.00;99.90
14000;DHT22;7075;53.574;10.054;2023-07-29T00:34:44;20.00;99.90
14000;DHT22;7075;53.574;10.054;2023-07-29T00:37:10;20.00;99.90
14000;DHT22;7075;53.574;10.054;2023-07-29T00:39:36;20.00;99.90
14000;DHT22;7075;53.574;10.054;2023-07-29T00:42:06;20.00;99.90
14000;DHT22;7075;53.574;10.054;2023-07-29T00:44:32;20.00;99.90
14000;DHT22;7075;53.574;10.054;2023-07-29T00:47:00;20.00;99.90
14000;DHT22;7075;53.574;10.054;2023-07-29T00:49:28;19.90;99.90
14000;DHT22;7075;53.574;10.054;2023-07-29T00:51:55;19.90;99.90
14000;DHT22;7075;53.574;10.054;2023-07-29T00:54:20;19.90;99.90
14000;DHT22;7075;53.574;10.054;2023-07-29T00:56:46;19.90;99.90
14000;DHT22;7075;53.574;10.054;2023-07-29T00:59:11;19.90;99.90
14000;DHT22;7075;53.574;10.054;2023-07-29T01:01:39;19.90;99.90
14000;DHT22;7075;53.574;10.054;2023-07-29T01:04:04;19.90;99.90
14000;DHT22;7075;53.574;10.054;2023-07-29T01:09:59;19.90;99.90
14000;DHT22;7075;53.574;10.054;2023-07-29T01:15:25;20.00;99.90
14000;DHT22;7075;53.574;10.054;2023-07-29T01:17:59;20.00;99.90
14000;DHT22;7075;53.574;10.054;2023-07-29T01:20:25;20.00;99.90
14000;DHT22;7075;53.574;10.054;2023-07-29T01:22:51;20.00;99.90
14000;DHT22;7075;53.574;10.054;2023-07-29T01:25:17;20.00;99.90
14000;DHT22;7075;53.574;10.054;2023-07-29T01:27:44;20.00;99.90
14000;DHT22;7075;53.574;10.054;2023-07-29T01:30:10;20.00;99.90
14000;DHT22;7075;53.574;10.054;2023-07-29T01:32:41;20.00;99.90
14000;DHT22;7075;53.574;10.054;2023-07-29T01:35:42;20.00;99.90
14000;DHT22;7075;53.574;10.054;2023-07-29T01:38:16;20.00;99.90
14000;DHT22;7075;53.574;10.054;2023-07-29T01:40:44;20.00;99.90
14000;DHT22;7075;53.574;10.054;2023-07-29T01:43:10;19.90;99.90
14000;DHT22;7075;53.574;10.054;2023-07-29T01:45:36;19.90;99.90
14000;DHT22;7075;53.574;10.054;2023-07-29T01:48:07;19.90;99.90
14000;DHT22;7075;53.574;10.054;2023-07-29T01:50:34;19.90;99.90
14000;DHT22;7075;53.574;10.054;2023-07-29T01:53:08;19.90;99.90
14000;DHT22;7075;53.574;10.054;2023-07-29T01:55:34;19.90;99.90
14000;DHT22;7075;53.574;10.054;2023-07-29T01:58:00;19.80;99.90
14000;DHT22;7075;53.574;10.054;2023-07-29T02:00:25;19.70;99.90
14000;DHT22;7075;53.574;10.054;2023-07-29T02:02:51;19.80;99.90
14000;DHT22;7075;53.574;10.054;2023-07-29T02:05:17;19.80;99.90
14000;DHT22;7075;53.574;10.054;2023-07-29T02:07:42;19.80;99.90
14000;DHT22;7075;53.574;10.054;2023-07-29T02:10:08;19.70;99.90
14000;DHT22;7075;53.574;10.054;2023-07-29T02:12:34;19.70;99.90
14000;DHT22;7075;53.574;10.054;2023-07-29T02:15:00;19.70;99.90
14000;DHT22;7075;53.574;10.054;2023-07-29T02:17:25;19.70;99.90
14000;DHT22;7075;53.574;10.054;2023-07-29T02:19:51;19.70;99.90
14000;DHT22;7075;53.574;10.054;2023-07-29T02:22:17;19.70;99.90
14000;DHT22;7075;53.574;10.054;2023-07-29T02:24:44;19.70;99.90
14000;DHT22;7075;53.574;10.054;2023-07-29T02:27:10;19.80;99.90
14000;DHT22;7075;53.574;10.054;2023-07-29T02:29:36;19.80;99.90
14000;DHT22;7075;53.574;10.054;2023-07-29T02:32:02;19.80;99.90
14000;DHT22;7075;53.574;10.054;2023-07-29T02:34:27;19.90;99.90
14000;DHT22;7075;53.574;10.054;2023-07-29T02:36:53;19.90;99.90
14000;DHT22;7075;53.574;10.054;2023-07-29T02:39:18;19.90;99.90
14000;DHT22;7075;53.574;10.054;2023-07-29T02:41:44;19.90;99.90
14000;DHT22;7075;53.574;10.054;2023-07-29T02:44:10;19.90;99.90
14000;DHT22;7075;53.574;10.054;2023-07-29T02:46:35;19.90;99.90
14000;DHT22;7075;53.574;10.054;2023-07-29T02:49:02;19.90;99.90
14000;DHT22;7075;53.574;10.054;2023-07-29T02:51:28;19.90;99.90
14000;DHT22;7075;53.574;10.054;2023-07-29T02:53:53;19.90;99.90
14000;DHT22;7075;53.574;10.054;2023-07-29T02:56:19;19.90;99.90
14000;DHT22;7075;53.574;10.054;2023-07-29T02:58:44;19.90;99.90
14000;DHT22;7075;53.574;10.054;2023-07-29T03:01:10;19.90;99.90
14000;DHT22;7075;53.574;10.054;2023-07-29T03:03:36;19.90;99.90
14000;DHT22;7075;53.574;10.054;2023-07-29T03:06:03;19.80;99.90
14000;DHT22;7075;53.574;10.054;2023-07-29T03:08:29;19.80;99.90
14000;DHT22;7075;53.574;10.054;2023-07-29T03:10:56;19.80;99.90
14000;DHT22;7075;53.574;10.054;2023-07-29T03:13:22;19.70;99.90
14000;DHT22;7075;53.574;10.054;2023-07-29T03:15:47;19.70;99.90
14000;DHT22;7075;53.574;10.054;2023-07-29T03:18:13;19.70;99.90
14000;DHT22;7075;53.574;10.054;2023-07-29T03:20:38;19.70;99.90
14000;DHT22;7075;53.574;10.054;2023-07-29T03:23:04;19.60;99.90
14000;DHT22;7075;53.574;10.054;2023-07-29T03:25:29;19.60;99.90
14000;DHT22;7075;53.574;10.054;2023-07-29T03:27:55;19.50;99.90
14000;DHT22;7075;53.574;10.054;2023-07-29T03:30:22;19.60;99.90
14000;DHT22;7075;53.574;10.054;2023-07-29T03:32:48;19.50;99.90
14000;DHT22;7075;53.574;10.054;2023-07-29T03:35:14;19.50;99.90
14000;DHT22;7075;53.574;10.054;2023-07-29T03:37:40;19.50;99.90
14000;DHT22;7075;53.574;10.054;2023-07-29T03:40:07;19.50;99.90
14000;DHT22;7075;53.574;10.054;2023-07-29T03:42:33;19.50;99.90
14000;DHT22;7075;53.574;10.054;2023-07-29T03:48:20;19.40;99.90
14000;DHT22;7075;53.574;10.054;2023-07-29T03:50:46;19.30;99.90
14000;DHT22;7075;53.574;10.054;2023-07-29T03:53:11;19.30;99.90
14000;DHT22;7075;53.574;10.054;2023-07-29T03:55:37;19.40;99.90
14000;DHT22;7075;53.574;10.054;2023-07-29T03:58:02;19.40;99.90
14000;DHT22;7075;53.574;10.054;2023-07-29T04:00:28;19.40;99.90
14000;DHT22;7075;53.574;10.054;2023-07-29T04:02:53;19.40;99.90
14000;DHT22;7075;53.574;10.054;2023-07-29T04:05:19;19.40;99.90
14000;DHT22;7075;53.574;10.054;2023-07-29T04:07:45;19.40;99.90
14000;DHT22;7075;53.574;10.054;2023-07-29T04:10:11;19.40;99.90
14000;DHT22;7075;53.574;10.054;2023-07-29T04:12:38;19.40;99.90
14000;DHT22;7075;53.574;10.054;2023-07-29T04:15:04;19.30;99.90
14000;DHT22;7075;53.574;10.054;2023-07-29T04:17:29;19.30;99.90
14000;DHT22;7075;53.574;10.054;2023-07-29T04:19:55;19.20;99.90
14000;DHT22;7075;53.574;10.054;2023-07-29T04:22:20;19.30;99.90
14000;DHT22;7075;53.574;10.054;2023-07-29T04:24:46;19.30;99.90
14000;DHT22;7075;53.574;10.054;2023-07-29T04:27:12;19.20;99.90
14000;DHT22;7075;53.574;10.054;2023-07-29T04:29:37;19.20;99.90
14000;DHT22;7075;53.574;10.054;2023-07-29T04:32:03;19.20;99.90
14000;DHT22;7075;53.574;10.054;2023-07-29T04:34:29;19.20;99.90
14000;DHT22;7075;53.574;10.054;2023-07-29T04:36:55;19.30;99.90
14000;DHT22;7075;53.574;10.054;2023-07-29T04:39:21;19.30;99.90
14000;DHT22;7075;53.574;10.054;2023-07-29T04:41:46;19.30;99.90
14000;DHT22;7075;53.574;10.054;2023-07-29T04:44:12;19.20;99.90
14000;DHT22;7075;53.574;10.054;2023-07-29T04:46:37;19.20;99.90
14000;DHT22;7075;53.574;10.054;2023-07-29T04:49:04;19.20;99.90
14000;DHT22;7075;53.574;10.054;2023-07-29T04:51:31;19.30;99.90
14000;DHT22;7075;53.574;10.054;2023-07-29T04:53:59;19.30;99.90
14000;DHT22;7075;53.574;10.054;2023-07-29T04:56:25;19.20;99.90
14000;DHT22;7075;53.574;10.054;2023-07-29T04:58:51;19.30;99.90
14000;DHT22;7075;53.574;10.054;2023-07-29T05:01:21;19.30;99.90
14000;DHT22;7075;53.574;10.054;2023-07-29T05:03:48;19.30;99.90
14000;DHT22;7075;53.574;10.054;2023-07-29T05:06:14;19.30;99.90
14000;DHT22;7075;53.574;10.054;2023-07-29T05:08:40;19.30;99.90
14000;DHT22;7075;53.574;10.054;2023-07-29T05:11:07;19.30;99.90
14000;DHT22;7075;53.574;10.054;2023-07-29T05:13:32;19.30;99.90
14000;DHT22;7075;53.574;10.054;2023-07-29T05:15:58;19.30;99.90
14000;DHT22;7075;53.574;10.054;2023-07-29T05:18:23;19.40;99.90
14000;DHT22;7075;53.574;10.054;2023-07-29T05:20:49;19.40;99.90
14000;DHT22;7075;53.574;10.054;2023-07-29T05:23:15;19.50;99.90
14000;DHT22;7075;53.574;10.054;2023-07-29T05:25:40;19.50;99.90
14000;DHT22;7075;53.574;10.054;2023-07-29T05:28:07;19.60;99.90
14000;DHT22;7075;53.574;10.054;2023-07-29T05:30:36;19.60;99.90
14000;DHT22;7075;53.574;10.054;2023-07-29T05:33:04;19.60;99.90
14000;DHT22;7075;53.574;10.054;2023-07-29T05:35:31;19.60;99.90
14000;DHT22;7075;53.574;10.054;2023-07-29T05:37:57;19.60;99.90
14000;DHT22;7075;53.574;10.054;2023-07-29T05:40:23;19.50;99.90
14000;DHT22;7075;53.574;10.054;2023-07-29T05:42:50;19.50;99.90
14000;DHT22;7075;53.574;10.054;2023-07-29T05:45:18;19.50;99.90
14000;DHT22;7075;53.574;10.054;2023-07-29T05:47:44;19.60;99.90
14000;DHT22;7075;53.574;10.054;2023-07-29T05:50:11;19.60;99.90
14000;DHT22;7075;53.574;10.054;2023-07-29T05:52:38;19.60;99.90
14000;DHT22;7075;53.574;10.054;2023-07-29T05:55:05;19.60;99.90
14000;DHT22;7075;53.574;10.054;2023-07-29T05:57:30;19.60;99.90
14000;DHT22;7075;53.574;10.054;2023-07-29T05:59:57;19.60;99.90
14000;DHT22;7075;53.574;10.054;2023-07-29T06:02:25;19.60;99.90
14000;DHT22;7075;53.574;10.054;2023-07-29T06:04:52;19.60;99.90
14000;DHT22;7075;53.574;10.054;2023-07-29T06:07:18;19.60;99.90
14000;DHT22;7075;53.574;10.054;2023-07-29T06:09:45;19.60;99.90
14000;DHT22;7075;53.574;10.054;2023-07-29T06:12:11;19.60;99.90
14000;DHT22;7075;53.574;10.054;2023-07-29T06:14:38;19.60;99.90
14000;DHT22;7075;53.574;10.054;2023-07-29T06:17:04;19.60;99.90
14000;DHT22;7075;53.574;10.054;2023-07-29T06:19:31;19.60;99.90
14000;DHT22;7075;53.574;10.054;2023-07-29T06:21:56;19.60;99.90
14000;DHT22;7075;53.574;10.054;2023-07-29T06:24:23;19.50;99.90
14000;DHT22;7075;53.574;10.054;2023-07-29T06:26:50;19.60;99.90
14000;DHT22;7075;53.574;10.054;2023-07-29T06:29:17;19.70;99.90
14000;DHT22;7075;53.574;10.054;2023-07-29T06:31:44;19.70;99.90
14000;DHT22;7075;53.574;10.054;2023-07-29T06:34:10;19.70;99.90
14000;DHT22;7075;53.574;10.054;2023-07-29T06:36:36;19.70;99.90
14000;DHT22;7075;53.574;10.054;2023-07-29T06:39:01;19.70;99.90
14000;DHT22;7075;53.574;10.054;2023-07-29T06:41:27;19.80;99.90
14000;DHT22;7075;53.574;10.054;2023-07-29T06:43:54;19.80;99.90
14000;DHT22;7075;53.574;10.054;2023-07-29T06:46:26;19.80;99.90
14000;DHT22;7075;53.574;10.054;2023-07-29T06:48:51;19.90;99.90
14000;DHT22;7075;53.574;10.054;2023-07-29T06:51:18;20.00;99.90
14000;DHT22;7075;53.574;10.054;2023-07-29T06:53:45;20.10;99.90
14000;DHT22;7075;53.574;10.054;2023-07-29T06:56:10;20.10;99.90
14000;DHT22;7075;53.574;10.054;2023-07-29T06:58:37;20.20;99.90
14000;DHT22;7075;53.574;10.054;2023-07-29T07:01:04;20.20;99.90
14000;DHT22;7075;53.574;10.054;2023-07-29T07:03:31;20.20;99.90
14000;DHT22;7075;53.574;10.054;2023-07-29T07:05:58;20.20;99.90
14000;DHT22;7075;53.574;10.054;2023-07-29T07:08:24;20.20;99.90
14000;DHT22;7075;53.574;10.054;2023-07-29T07:10:49;20.10;99.90
14000;DHT22;7075;53.574;10.054;2023-07-29T07:13:15;20.10;99.90
14000;DHT22;7075;53.574;10.054;2023-07-29T07:15:40;20.10;99.90
14000;DHT22;7075;53.574;10.054;2023-07-29T07:18:06;20.10;99.90
14000;DHT22;7075;53.574;10.054;2023-07-29T07:20:33;20.00;99.90
14000;DHT22;7075;53.574;10.054;2023-07-29T07:22:59;20.00;99.90
14000;DHT22;7075;53.574;10.054;2023-07-29T07:25:25;20.00;99.90
14000;DHT22;7075;53.574;10.054;2023-07-29T07:27:50;20.00;99.90
14000;DHT22;7075;53.574;10.054;2023-07-29T07:30:17;20.00;99.90
14000;DHT22;7075;53.574;10.054;2023-07-29T07:32:44;20.00;99.90
14000;DHT22;7075;53.574;10.054;2023-07-29T07:35:12;20.00;99.90
14000;DHT22;7075;53.574;10.054;2023-07-29T07:37:40;20.00;99.90
14000;DHT22;7075;53.574;10.054;2023-07-29T07:40:07;20.00;99.90
14000;DHT22;7075;53.574;10.054;2023-07-29T07:42:33;20.10;99.90
14000;DHT22;7075;53.574;10.054;2023-07-29T07:45:00;20.10;99.90
14000;DHT22;7075;53.574;10.054;2023-07-29T07:47:25;20.10;99.90
14000;DHT22;7075;53.574;10.054;2023-07-29T07:49:51;20.00;99.90
14000;DHT22;7075;53.574;10.054;2023-07-29T07:52:17;20.10;99.90
14000;DHT22;7075;53.574;10.054;2023-07-29T07:54:44;20.10;99.90
14000;DHT22;7075;53.574;10.054;2023-07-29T07:57:12;20.20;99.90
14000;DHT22;7075;53.574;10.054;2023-07-29T07:59:39;20.20;99.90
14000;DHT22;7075;53.574;10.054;2023-07-29T08:02:05;20.30;99.90
14000;DHT22;7075;53.574;10.054;2023-07-29T08:04:34;20.30;99.90
14000;DHT22;7075;53.574;10.054;2023-07-29T08:06:59;20.20;99.90
14000;DHT22;7075;53.574;10.054;2023-07-29T08:09:25;20.30;99.90
14000;DHT22;7075;53.574;10.054;2023-07-29T08:11:52;20.30;99.90
14000;DHT22;7075;53.574;10.054;2023-07-29T08:14:19;20.20;99.90
14000;DHT22;7075;53.574;10.054;2023-07-29T08:16:44;20.30;99.90
14000;DHT22;7075;53.574;10.054;2023-07-29T08:19:11;20.20;99.90
14000;DHT22;7075;53.574;10.054;2023-07-29T08:21:36;20.20;99.90
14000;DHT22;7075;53.574;10.054;2023-07-29T08:24:02;20.30;99.90
14000;DHT22;7075;53.574;10.054;2023-07-29T08:26:28;20.30;99.90
14000;DHT22;7075;53.574;10.054;2023-07-29T08:28:55;20.30;99.90
14000;DHT22;7075;53.574;10.054;2023-07-29T08:31:22;20.30;99.90
14000;DHT22;7075;53.574;10.054;2023-07-29T08:33:49;20.30;99.90
14000;DHT22;7075;53.574;10.054;2023-07-29T08:36:14;20.40;99.90
14000;DHT22;7075;53.574;10.054;2023-07-29T08:38:43;20.40;99.90
14000;DHT22;7075;53.574;10.054;2023-07-29T08:41:16;20.40;99.90
14000;DHT22;7075;53.574;10.054;2023-07-29T08:43:54;20.30;99.90
14000;DHT22;7075;53.574;10.054;2023-07-29T08:46:23;20.30;99.90
14000;DHT22;7075;53.574;10.054;2023-07-29T08:48:49;20.30;99.90
14000;DHT22;7075;53.574;10.054;2023-07-29T08:51:18;20.30;99.90
14000;DHT22;7075;53.574;10.054;2023-07-29T08:53:46;20.30;99.90
14000;DHT22;7075;53.574;10.054;2023-07-29T08:56:12;20.30;99.90
14000;DHT22;7075;53.574;10.054;2023-07-29T08:58:39;20.30;99.90
14000;DHT22;7075;53.574;10.054;2023-07-29T09:01:06;20.30;99.90
14000;DHT22;7075;53.574;10.054;2023-07-29T09:03:31;20.30;99.90
14000;DHT22;7075;53.574;10.054;2023-07-29T09:05:59;20.30;99.90
14000;DHT22;7075;53.574;10.054;2023-07-29T09:08:29;20.30;99.90
14000;DHT22;7075;53.574;10.054;2023-07-29T09:10:56;20.30;99.90
14000;DHT22;7075;53.574;10.054;2023-07-29T09:13:23;20.30;99.90
14000;DHT22;7075;53.574;10.054;2023-07-29T09:15:56;20.30;99.90
14000;DHT22;7075;53.574;10.054;2023-07-29T09:18:26;20.40;99.90
14000;DHT22;7075;53.574;10.054;2023-07-29T09:20:53;20.50;99.90
14000;DHT22;7075;53.574;10.054;2023-07-29T09:23:18;20.60;99.90
14000;DHT22;7075;53.574;10.054;2023-07-29T09:25:48;20.70;99.90
14000;DHT22;7075;53.574;10.054;2023-07-29T09:28:16;20.70;99.90
14000;DHT22;7075;53.574;10.054;2023-07-29T09:30:46;20.80;99.90
14000;DHT22;7075;53.574;10.054;2023-07-29T09:33:12;20.80;99.90
14000;DHT22;7075;53.574;10.054;2023-07-29T09:35:39;20.90;99.90
14000;DHT22;7075;53.574;10.054;2023-07-29T09:38:07;20.90;99.90
14000;DHT22;7075;53.574;10.054;2023-07-29T09:40:37;21.00;99.90
14000;DHT22;7075;53.574;10.054;2023-07-29T09:43:04;21.10;99.90
14000;DHT22;7075;53.574;10.054;2023-07-29T09:45:33;21.10;99.90
14000;DHT22;7075;53.574;10.054;2023-07-29T09:47:59;21.10;99.90
14000;DHT22;7075;53.574;10.054;2023-07-29T09:50:27;21.20;99.90
14000;DHT22;7075;53.574;10.054;2023-07-29T09:52:55;21.20;99.90
14000;DHT22;7075;53.574;10.054;2023-07-29T09:55:25;21.20;99.90
14000;DHT22;7075;53.574;10.054;2023-07-29T09:58:00;21.20;99.90
14000;DHT22;7075;53.574;10.054;2023-07-29T10:00:31;21.30;99.90
14000;DHT22;7075;53.574;10.054;2023-07-29T10:02:59;21.40;99.90
14000;DHT22;7075;53.574;10.054;2023-07-29T10:05:28;21.50;99.90
14000;DHT22;7075;53.574;10.054;2023-07-29T10:07:55;21.50;99.90
14000;DHT22;7075;53.574;10.054;2023-07-29T10:10:21;21.50;99.90
14000;DHT22;7075;53.574;10.054;2023-07-29T10:12:47;21.60;99.90
14000;DHT22;7075;53.574;10.054;2023-07-29T10:15:13;21.60;99.90
14000;DHT22;7075;53.574;10.054;2023-07-29T10:17:39;21.60;99.90
14000;DHT22;7075;53.574;10.054;2023-07-29T10:20:07;21.70;99.90
14000;DHT22;7075;53.574;10.054;2023-07-29T10:22:39;21.70;99.90
14000;DHT22;7075;53.574;10.054;2023-07-29T10:25:29;21.80;99.90
14000;DHT22;7075;53.574;10.054;2023-07-29T10:28:05;21.80;99.90
14000;DHT22;7075;53.574;10.054;2023-07-29T10:30:33;21.90;99.90
14000;DHT22;7075;53.574;10.054;2023-07-29T10:33:03;22.00;99.90
14000;DHT22;7075;53.574;10.054;2023-07-29T10:35:30;22.10;99.90
14000;DHT22;7075;53.574;10.054;2023-07-29T10:37:57;22.00;99.90
14000;DHT22;7075;53.574;10.054;2023-07-29T10:40:24;22.00;99.90
14000;DHT22;7075;53.574;10.054;2023-07-29T10:43:24;21.90;99.90
14000;DHT22;7075;53.574;10.054;2023-07-29T10:45:52;21.90;99.90
14000;DHT22;7075;53.574;10.054;2023-07-29T10:51:30;22.00;99.90
14000;DHT22;7075;53.574;10.054;2023-07-29T10:56:33;21.90;99.90
14000;DHT22;7075;53.574;10.054;2023-07-29T10:59:23;21.90;99.90
14000;DHT22;7075;53.574;10.054;2023-07-29T11:02:15;21.80;99.90
14000;DHT22;7075;53.574;10.054;2023-07-29T11:04:50;21.80;99.90
14000;DHT22;7075;53.574;10.054;2023-07-29T11:17:58;22.00;99.90
14000;DHT22;7075;53.574;10.054;2023-07-29T11:20:28;22.00;99.90
14000;DHT22;7075;53.574;10.054;2023-07-29T11:22:55;22.00;99.90
14000;DHT22;7075;53.574;10.054;2023-07-29T11:25:22;22.00;99.90
14000;DHT22;7075;53.574;10.054;2023-07-29T11:27:49;22.00;99.90
14000;DHT22;7075;53.574;10.054;2023-07-29T11:30:16;22.00;99.90
14000;DHT22;7075;53.574;10.054;2023-07-29T11:32:44;21.90;99.90
14000;DHT22;7075;53.574;10.054;2023-07-29T11:35:17;21.80;99.90
14000;DHT22;7075;53.574;10.054;2023-07-29T11:37:47;21.80;99.90
14000;DHT22;7075;53.574;10.054;2023-07-29T11:40:19;21.70;99.90
14000;DHT22;7075;53.574;10.054;2023-07-29T11:42:46;21.80;99.90
14000;DHT22;7075;53.574;10.054;2023-07-29T11:45:14;22.00;99.90
14000;DHT22;7075;53.574;10.054;2023-07-29T11:47:40;22.60;99.90
14000;DHT22;7075;53.574;10.054;2023-07-29T11:50:07;23.40;99.90
14000;DHT22;7075;53.574;10.054;2023-07-29T11:52:37;24.10;99.90
14000;DHT22;7075;53.574;10.054;2023-07-29T11:55:05;24.70;99.90
14000;DHT22;7075;53.574;10.054;2023-07-29T11:57:35;25.10;99.90
14000;DHT22;7075;53.574;10.054;2023-07-29T12:00:06;25.60;99.90
14000;DHT22;7075;53.574;10.054;2023-07-29T12:02:33;25.80;99.90
14000;DHT22;7075;53.574;10.054;2023-07-29T12:05:00;25.80;99.90
14000;DHT22;7075;53.574;10.054;2023-07-29T12:07:26;26.00;99.90
14000;DHT22;7075;53.574;10.054;2023-07-29T12:09:52;25.90;99.90
14000;DHT22;7075;53.574;10.054;2023-07-29T12:12:18;25.80;99.90
14000;DHT22;7075;53.574;10.054;2023-07-29T12:14:47;25.30;99.90
14000;DHT22;7075;53.574;10.054;2023-07-29T12:17:12;24.80;99.90
14000;DHT22;7075;53.574;10.054;2023-07-29T12:19:39;24.60;99.90
14000;DHT22;7075;53.574;10.054;2023-07-29T12:22:07;24.70;99.90
14000;DHT22;7075;53.574;10.054;2023-07-29T12:24:33;24.80;99.90
14000;DHT22;7075;53.574;10.054;2023-07-29T12:27:00;24.80;99.90
14000;DHT22;7075;53.574;10.054;2023-07-29T12:29:27;24.90;99.90
14000;DHT22;7075;53.574;10.054;2023-07-29T12:32:03;25.10;99.90
14000;DHT22;7075;53.574;10.054;2023-07-29T12:34:30;25.20;99.90
14000;DHT22;7075;53.574;10.054;2023-07-29T12:36:57;25.40;99.90
14000;DHT22;7075;53.574;10.054;2023-07-29T12:39:31;25.60;99.90
14000;DHT22;7075;53.574;10.054;2023-07-29T12:41:58;25.80;99.90
14000;DHT22;7075;53.574;10.054;2023-07-29T12:44:25;25.70;99.90
14000;DHT22;7075;53.574;10.054;2023-07-29T12:46:51;25.70;99.90
14000;DHT22;7075;53.574;10.054;2023-07-29T12:49:16;25.70;99.90
14000;DHT22;7075;53.574;10.054;2023-07-29T12:51:42;25.80;99.90
14000;DHT22;7075;53.574;10.054;2023-07-29T12:54:08;25.70;99.90
14000;DHT22;7075;53.574;10.054;2023-07-29T12:56:33;25.80;99.90
14000;DHT22;7075;53.574;10.054;2023-07-29T12:59:00;25.80;99.90
14000;DHT22;7075;53.574;10.054;2023-07-29T13:01:26;25.70;99.90
14000;DHT22;7075;53.574;10.054;2023-07-29T13:03:52;25.80;99.90
14000;DHT22;7075;53.574;10.054;2023-07-29T13:06:18;25.70;99.90
14000;DHT22;7075;53.574;10.054;2023-07-29T13:08:44;25.80;99.90
14000;DHT22;7075;53.574;10.054;2023-07-29T13:11:10;25.80;99.90
14000;DHT22;7075;53.574;10.054;2023-07-29T13:13:36;25.60;99.90
14000;DHT22;7075;53.574;10.054;2023-07-29T13:16:01;25.40;99.90
14000;DHT22;7075;53.574;10.054;2023-07-29T13:18:27;25.40;99.90
14000;DHT22;7075;53.574;10.054;2023-07-29T13:20:53;25.60;99.90
14000;DHT22;7075;53.574;10.054;2023-07-29T13:23:19;25.70;99.90
14000;DHT22;7075;53.574;10.054;2023-07-29T13:25:45;25.40;99.90
14000;DHT22;7075;53.574;10.054;2023-07-29T13:28:11;25.20;99.90
14000;DHT22;7075;53.574;10.054;2023-07-29T13:30:41;24.80;99.90
14000;DHT22;7075;53.574;10.054;2023-07-29T13:33:07;24.70;99.90
14000;DHT22;7075;53.574;10.054;2023-07-29T13:35:34;24.60;99.90
14000;DHT22;7075;53.574;10.054;2023-07-29T13:38:03;24.80;99.90
14000;DHT22;7075;53.574;10.054;2023-07-29T13:40:29;25.00;99.90
14000;DHT22;7075;53.574;10.054;2023-07-29T13:42:55;24.90;99.90
14000;DHT22;7075;53.574;10.054;2023-07-29T13:45:21;24.80;99.90
14000;DHT22;7075;53.574;10.054;2023-07-29T13:47:48;24.80;99.90
14000;DHT22;7075;53.574;10.054;2023-07-29T13:50:14;25.00;99.90
14000;DHT22;7075;53.574;10.054;2023-07-29T13:52:41;25.10;99.90
14000;DHT22;7075;53.574;10.054;2023-07-29T13:55:07;25.20;99.90
14000;DHT22;7075;53.574;10.054;2023-07-29T13:57:33;25.10;99.90
14000;DHT22;7075;53.574;10.054;2023-07-29T14:00:00;24.80;99.90
14000;DHT22;7075;53.574;10.054;2023-07-29T14:02:26;24.80;99.90
14000;DHT22;7075;53.574;10.054;2023-07-29T14:04:52;24.80;99.90
14000;DHT22;7075;53.574;10.054;2023-07-29T14:07:17;25.00;99.90
14000;DHT22;7075;53.574;10.054;2023-07-29T14:09:43;25.20;99.90
14000;DHT22;7075;53.574;10.054;2023-07-29T14:12:11;25.20;99.90
14000;DHT22;7075;53.574;10.054;2023-07-29T14:14:38;25.40;99.90
14000;DHT22;7075;53.574;10.054;2023-07-29T14:17:04;25.90;99.90
14000;DHT22;7075;53.574;10.054;2023-07-29T14:19:31;26.00;99.90
14000;DHT22;7075;53.574;10.054;2023-07-29T14:21:57;26.00;99.90
14000;DHT22;7075;53.574;10.054;2023-07-29T14:24:27;25.80;99.90
14000;DHT22;7075;53.574;10.054;2023-07-29T14:26:52;25.90;99.90
14000;DHT22;7075;53.574;10.054;2023-07-29T14:29:19;25.80;99.90
14000;DHT22;7075;53.574;10.054;2023-07-29T14:31:45;26.00;99.90
14000;DHT22;7075;53.574;10.054;2023-07-29T14:34:11;26.30;99.90
14000;DHT22;7075;53.574;10.054;2023-07-29T14:36:38;26.40;99.90
14000;DHT22;7075;53.574;10.054;2023-07-29T14:39:03;26.40;99.90
14000;DHT22;7075;53.574;10.054;2023-07-29T14:41:30;26.10;99.90
14000;DHT22;7075;53.574;10.054;2023-07-29T14:43:56;26.10;99.90
14000;DHT22;7075;53.574;10.054;2023-07-29T14:46:21;26.40;99.90
14000;DHT22;7075;53.574;10.054;2023-07-29T14:48:47;26.60;99.90
14000;DHT22;7075;53.574;10.054;2023-07-29T14:51:12;26.70;99.90
14000;DHT22;7075;53.574;10.054;2023-07-29T14:53:38;26.80;99.90
14000;DHT22;7075;53.574;10.054;2023-07-29T14:56:04;26.90;99.90
14000;DHT22;7075;53.574;10.054;2023-07-29T14:58:30;27.00;99.90
14000;DHT22;7075;53.574;10.054;2023-07-29T15:00:56;27.10;99.90
14000;DHT22;7075;53.574;10.054;2023-07-29T15:03:22;27.00;99.90
14000;DHT22;7075;53.574;10.054;2023-07-29T15:05:49;27.10;99.90
14000;DHT22;7075;53.574;10.054;2023-07-29T15:08:14;26.90;99.90
14000;DHT22;7075;53.574;10.054;2023-07-29T15:10:40;26.70;99.90
14000;DHT22;7075;53.574;10.054;2023-07-29T15:13:05;26.30;99.90
14000;DHT22;7075;53.574;10.054;2023-07-29T15:15:31;26.00;99.90
14000;DHT22;7075;53.574;10.054;2023-07-29T15:17:57;25.90;99.90
14000;DHT22;7075;53.574;10.054;2023-07-29T15:20:22;26.10;99.90
14000;DHT22;7075;53.574;10.054;2023-07-29T15:22:48;26.50;99.90
14000;DHT22;7075;53.574;10.054;2023-07-29T15:25:13;26.70;99.90
14000;DHT22;7075;53.574;10.054;2023-07-29T15:27:39;26.90;99.90
14000;DHT22;7075;53.574;10.054;2023-07-29T15:30:06;27.10;99.90
14000;DHT22;7075;53.574;10.054;2023-07-29T15:32:32;27.30;99.90
14000;DHT22;7075;53.574;10.054;2023-07-29T15:34:58;27.40;99.90
14000;DHT22;7075;53.574;10.054;2023-07-29T15:37:25;27.30;99.90
14000;DHT22;7075;53.574;10.054;2023-07-29T15:39:52;27.30;99.90
14000;DHT22;7075;53.574;10.054;2023-07-29T15:42:17;27.30;99.90
14000;DHT22;7075;53.574;10.054;2023-07-29T15:44:42;27.20;99.90
14000;DHT22;7075;53.574;10.054;2023-07-29T15:47:08;27.40;99.90
14000;DHT22;7075;53.574;10.054;2023-07-29T15:49:36;27.30;99.90
14000;DHT22;7075;53.574;10.054;2023-07-29T15:52:01;27.40;99.90
14000;DHT22;7075;53.574;10.054;2023-07-29T15:54:27;27.40;99.90